sensor_id;sensor_type;location;lat;lon;timestamp;P1;durP1;ratioP1;P2;durP2;ratioP2
31537;SDS011;18147;51.952;6.146;2023-01-01T00:01:09;30.50;;;17.73;;
31537;SDS011;18147;51.952;6.146;2023-01-01T00:03:36;35.45;;;17.02;;
31537;SDS011;18147;51.952;6.146;2023-01-01T00:06:05;30.67;;;13.90;;
31537;SDS011;18147;51.952;6.146;2023-01-01T00:08:33;30.33;;;14.05;;
31537;SDS011;18147;51.952;6.146;2023-01-01T00:10:59;34.25;;;12.27;;
31537;SDS011;18147;51.952;6.146;2023-01-01T00:13:28;20.90;;;11.68;;
31537;SDS011;18147;51.952;6.146;2023-01-01T00:15:54;25.65;;;11.07;;
31537;SDS011;18147;51.952;6.146;2023-01-01T00:18:20;25.33;;;11.68;;
31537;SDS011;18147;51.952;6.146;2023-01-01T00:20:45;26.45;;;11.05;;
31537;SDS011;18147;51.952;6.146;2023-01-01T00:23:11;23.92;;;10.85;;
31537;SDS011;18147;51.952;6.146;2023-01-01T00:25:38;26.70;;;10.75;;
31537;SDS011;18147;51.952;6.146;2023-01-01T00:28:04;21.50;;;9.45;;
31537;SDS011;18147;51.952;6.146;2023-01-01T00:30:31;21.70;;;10.70;;
31537;SDS011;18147;51.952;6.146;2023-01-01T00:32:56;14.30;;;8.95;;
31537;SDS011;18147;51.952;6.146;2023-01-01T00:35:24;30.83;;;9.07;;
31537;SDS011;18147;51.952;6.146;2023-01-01T00:37:50;23.90;;;11.32;;
31537;SDS011;18147;51.952;6.146;2023-01-01T00:40:16;22.50;;;8.45;;
31537;SDS011;18147;51.952;6.146;2023-01-01T00:42:42;22.15;;;9.05;;
31537;SDS011;18147;51.952;6.146;2023-01-01T00:45:08;25.08;;;8.35;;
31537;SDS011;18147;51.952;6.146;2023-01-01T00:47:34;25.33;;;8.45;;
31537;SDS011;18147;51.952;6.146;2023-01-01T00:49:59;24.90;;;8.55;;
31537;SDS011;18147;51.952;6.146;2023-01-01T00:52:25;22.13;;;5.63;;
31537;SDS011;18147;51.952;6.146;2023-01-01T00:54:50;14.57;;;6.95;;
31537;SDS011;18147;51.952;6.146;2023-01-01T00:57:15;13.57;;;5.80;;
31537;SDS011;18147;51.952;6.146;2023-01-01T00:59:41;21.33;;;7.32;;
31537;SDS011;18147;51.952;6.146;2023-01-01T01:02:06;11.57;;;5.55;;
31537;SDS011;18147;51.952;6.146;2023-01-01T01:04:32;18.08;;;5.20;;
31537;SDS011;18147;51.952;6.146;2023-01-01T01:06:57;16.20;;;5.55;;
31537;SDS011;18147;51.952;6.146;2023-01-01T01:09:23;20.42;;;7.88;;
31537;SDS011;18147;51.952;6.146;2023-01-01T01:11:48;19.23;;;5.72;;
31537;SDS011;18147;51.952;6.146;2023-01-01T01:14:14;13.93;;;5.07;;
31537;SDS011;18147;51.952;6.146;2023-01-01T01:16:39;13.40;;;5.05;;
31537;SDS011;18147;51.952;6.146;2023-01-01T01:19:05;13.13;;;4.75;;
31537;SDS011;18147;51.952;6.146;2023-01-01T01:21:31;12.27;;;5.20;;
31537;SDS011;18147;51.952;6.146;2023-01-01T01:23:59;15.93;;;5.22;;
31537;SDS011;18147;51.952;6.146;2023-01-01T01:26:28;19.27;;;6.00;;
31537;SDS011;18147;51.952;6.146;2023-01-01T01:28:56;15.60;;;5.93;;
31537;SDS011;18147;51.952;6.146;2023-01-01T01:31:22;16.20;;;5.38;;
31537;SDS011;18147;51.952;6.146;2023-01-01T01:33:50;11.77;;;5.07;;
31537;SDS011;18147;51.952;6.146;2023-01-01T01:36:16;9.98;;;3.78;;
31537;SDS011;18147;51.952;6.146;2023-01-01T01:38:42;14.45;;;4.50;;
31537;SDS011;18147;51.952;6.146;2023-01-01T01:41:08;11.25;;;5.07;;
31537;SDS011;18147;51.952;6.146;2023-01-01T01:46:05;7.28;;;3.38;;
31537;SDS011;18147;51.952;6.146;2023-01-01T01:48:37;11.52;;;3.33;;
31537;SDS011;18147;51.952;6.146;2023-01-01T01:51:05;11.45;;;3.00;;
31537;SDS011;18147;51.952;6.146;2023-01-01T01:53:32;13.98;;;3.67;;
31537;SDS011;18147;51.952;6.146;2023-01-01T01:56:02;14.90;;;3.42;;
31537;SDS011;18147;51.952;6.146;2023-01-01T01:58:31;9.90;;;3.20;;
31537;SDS011;18147;51.952;6.146;2023-01-01T02:00:58;8.63;;;3.28;;
31537;SDS011;18147;51.952;6.146;2023-01-01T02:03:44;9.82;;;3.33;;
31537;SDS011;18147;51.952;6.146;2023-01-01T02:06:16;11.60;;;3.83;;
31537;SDS011;18147;51.952;6.146;2023-01-01T02:08:43;14.05;;;3.40;;
31537;SDS011;18147;51.952;6.146;2023-01-01T02:11:09;14.88;;;4.57;;
31537;SDS011;18147;51.952;6.146;2023-01-01T02:13:37;15.40;;;3.42;;
31537;SDS011;18147;51.952;6.146;2023-01-01T02:18:32;11.02;;;2.78;;
31537;SDS011;18147;51.952;6.146;2023-01-01T02:21:07;10.00;;;3.92;;
31537;SDS011;18147;51.952;6.146;2023-01-01T02:23:54;15.43;;;2.90;;
31537;SDS011;18147;51.952;6.146;2023-01-01T02:26:36;17.50;;;4.10;;
31537;SDS011;18147;51.952;6.146;2023-01-01T02:29:16;13.52;;;3.67;;
31537;SDS011;18147;51.952;6.146;2023-01-01T02:34:42;10.75;;;3.97;;
31537;SDS011;18147;51.952;6.146;2023-01-01T02:37:11;12.25;;;3.10;;
31537;SDS011;18147;51.952;6.146;2023-01-01T02:39:44;8.05;;;3.30;;
31537;SDS011;18147;51.952;6.146;2023-01-01T02:42:15;9.02;;;3.00;;
31537;SDS011;18147;51.952;6.146;2023-01-01T02:44:42;11.88;;;3.10;;
31537;SDS011;18147;51.952;6.146;2023-01-01T02:47:11;13.00;;;3.30;;
31537;SDS011;18147;51.952;6.146;2023-01-01T02:49:57;6.18;;;2.72;;
31537;SDS011;18147;51.952;6.146;2023-01-01T02:55:16;13.65;;;4.18;;
31537;SDS011;18147;51.952;6.146;2023-01-01T02:58:08;9.93;;;2.75;;
31537;SDS011;18147;51.952;6.146;2023-01-01T03:01:07;6.38;;;2.75;;
31537;SDS011;18147;51.952;6.146;2023-01-01T03:03:45;8.20;;;2.53;;
31537;SDS011;18147;51.952;6.146;2023-01-01T03:06:27;7.68;;;2.80;;
31537;SDS011;18147;51.952;6.146;2023-01-01T03:09:15;9.50;;;2.70;;
31537;SDS011;18147;51.952;6.146;2023-01-01T03:14:45;4.97;;;2.55;;
31537;SDS011;18147;51.952;6.146;2023-01-01T03:17:25;11.13;;;2.85;;
31537;SDS011;18147;51.952;6.146;2023-01-01T03:20:00;6.53;;;3.47;;
31537;SDS011;18147;51.952;6.146;2023-01-01T03:22:31;10.70;;;3.00;;
31537;SDS011;18147;51.952;6.146;2023-01-01T03:27:31;8.60;;;3.28;;
31537;SDS011;18147;51.952;6.146;2023-01-01T03:30:02;8.88;;;2.88;;
31537;SDS011;18147;51.952;6.146;2023-01-01T03:32:43;11.25;;;2.67;;
31537;SDS011;18147;51.952;6.146;2023-01-01T03:38:08;6.07;;;2.60;;
31537;SDS011;18147;51.952;6.146;2023-01-01T03:40:47;7.72;;;2.60;;
31537;SDS011;18147;51.952;6.146;2023-01-01T03:46:03;7.28;;;2.95;;
31537;SDS011;18147;51.952;6.146;2023-01-01T03:48:32;9.93;;;3.08;;
31537;SDS011;18147;51.952;6.146;2023-01-01T03:51:21;7.88;;;3.58;;
31537;SDS011;18147;51.952;6.146;2023-01-01T03:53:54;4.50;;;2.40;;
31537;SDS011;18147;51.952;6.146;2023-01-01T03:56:37;6.03;;;3.00;;
31537;SDS011;18147;51.952;6.146;2023-01-01T03:59:11;8.73;;;2.63;;
31537;SDS011;18147;51.952;6.146;2023-01-01T04:01:51;7.28;;;1.95;;
31537;SDS011;18147;51.952;6.146;2023-01-01T04:04:21;6.00;;;2.45;;
31537;SDS011;18147;51.952;6.146;2023-01-01T04:06:48;15.43;;;3.53;;
31537;SDS011;18147;51.952;6.146;2023-01-01T04:09:15;3.97;;;2.05;;
31537;SDS011;18147;51.952;6.146;2023-01-01T04:11:45;6.07;;;2.20;;
31537;SDS011;18147;51.952;6.146;2023-01-01T04:17:03;5.35;;;2.20;;
31537;SDS011;18147;51.952;6.146;2023-01-01T04:19:30;9.20;;;2.05;;
31537;SDS011;18147;51.952;6.146;2023-01-01T04:21:56;5.40;;;1.85;;
31537;SDS011;18147;51.952;6.146;2023-01-01T04:24:21;5.93;;;1.80;;
31537;SDS011;18147;51.952;6.146;2023-01-01T04:26:48;11.05;;;2.33;;
31537;SDS011;18147;51.952;6.146;2023-01-01T04:29:15;8.02;;;2.20;;
31537;SDS011;18147;51.952;6.146;2023-01-01T04:31:40;6.85;;;1.77;;
31537;SDS011;18147;51.952;6.146;2023-01-01T04:34:06;13.48;;;2.40;;
31537;SDS011;18147;51.952;6.146;2023-01-01T04:36:32;7.68;;;2.40;;
31537;SDS011;18147;51.952;6.146;2023-01-01T04:38:58;7.35;;;1.50;;
31537;SDS011;18147;51.952;6.146;2023-01-01T04:41:23;6.60;;;1.92;;
31537;SDS011;18147;51.952;6.146;2023-01-01T04:43:49;16.80;;;3.15;;
31537;SDS011;18147;51.952;6.146;2023-01-01T04:46:18;7.38;;;2.58;;
31537;SDS011;18147;51.952;6.146;2023-01-01T04:48:45;7.05;;;1.90;;
31537;SDS011;18147;51.952;6.146;2023-01-01T04:51:11;5.18;;;1.83;;
31537;SDS011;18147;51.952;6.146;2023-01-01T04:53:38;5.20;;;2.30;;
31537;SDS011;18147;51.952;6.146;2023-01-01T04:56:15;7.65;;;1.48;;
31537;SDS011;18147;51.952;6.146;2023-01-01T04:58:42;7.97;;;2.00;;
31537;SDS011;18147;51.952;6.146;2023-01-01T05:01:18;6.00;;;1.70;;
31537;SDS011;18147;51.952;6.146;2023-01-01T05:03:46;18.77;;;2.25;;
31537;SDS011;18147;51.952;6.146;2023-01-01T05:06:12;13.85;;;2.95;;
31537;SDS011;18147;51.952;6.146;2023-01-01T05:08:40;9.07;;;1.80;;
31537;SDS011;18147;51.952;6.146;2023-01-01T05:11:10;7.70;;;2.42;;
31537;SDS011;18147;51.952;6.146;2023-01-01T05:13:44;9.55;;;1.80;;
31537;SDS011;18147;51.952;6.146;2023-01-01T05:16:12;9.82;;;2.20;;
31537;SDS011;18147;51.952;6.146;2023-01-01T05:18:39;6.75;;;2.00;;
31537;SDS011;18147;51.952;6.146;2023-01-01T05:21:07;10.65;;;2.22;;
31537;SDS011;18147;51.952;6.146;2023-01-01T05:23:34;8.10;;;2.85;;
31537;SDS011;18147;51.952;6.146;2023-01-01T05:26:07;5.90;;;1.90;;
31537;SDS011;18147;51.952;6.146;2023-01-01T05:28:35;6.15;;;2.03;;
31537;SDS011;18147;51.952;6.146;2023-01-01T05:31:03;11.60;;;2.15;;
31537;SDS011;18147;51.952;6.146;2023-01-01T05:33:34;11.85;;;2.13;;
31537;SDS011;18147;51.952;6.146;2023-01-01T05:35:59;10.90;;;2.85;;
31537;SDS011;18147;51.952;6.146;2023-01-01T05:38:25;8.20;;;2.63;;
31537;SDS011;18147;51.952;6.146;2023-01-01T05:40:51;11.13;;;2.38;;
31537;SDS011;18147;51.952;6.146;2023-01-01T05:43:16;5.72;;;1.92;;
31537;SDS011;18147;51.952;6.146;2023-01-01T05:45:42;6.25;;;2.33;;
31537;SDS011;18147;51.952;6.146;2023-01-01T05:48:09;12.52;;;2.58;;
31537;SDS011;18147;51.952;6.146;2023-01-01T05:50:35;10.50;;;2.47;;
31537;SDS011;18147;51.952;6.146;2023-01-01T05:53:00;5.63;;;1.75;;
31537;SDS011;18147;51.952;6.146;2023-01-01T05:55:26;6.47;;;2.17;;
31537;SDS011;18147;51.952;6.146;2023-01-01T05:57:51;4.25;;;1.80;;
31537;SDS011;18147;51.952;6.146;2023-01-01T06:00:17;6.32;;;1.92;;
31537;SDS011;18147;51.952;6.146;2023-01-01T06:02:42;8.80;;;2.63;;
31537;SDS011;18147;51.952;6.146;2023-01-01T06:05:08;12.05;;;2.00;;
31537;SDS011;18147;51.952;6.146;2023-01-01T06:07:34;20.48;;;4.88;;
31537;SDS011;18147;51.952;6.146;2023-01-01T06:10:00;10.80;;;2.35;;
31537;SDS011;18147;51.952;6.146;2023-01-01T06:12:26;12.15;;;2.17;;
31537;SDS011;18147;51.952;6.146;2023-01-01T06:14:51;10.05;;;2.67;;
31537;SDS011;18147;51.952;6.146;2023-01-01T06:17:17;10.15;;;2.15;;
31537;SDS011;18147;51.952;6.146;2023-01-01T06:19:42;12.95;;;3.60;;
31537;SDS011;18147;51.952;6.146;2023-01-01T06:22:07;5.72;;;1.90;;
31537;SDS011;18147;51.952;6.146;2023-01-01T06:24:33;5.55;;;1.73;;
31537;SDS011;18147;51.952;6.146;2023-01-01T06:26:58;14.13;;;2.42;;
31537;SDS011;18147;51.952;6.146;2023-01-01T06:29:24;13.95;;;2.10;;
31537;SDS011;18147;51.952;6.146;2023-01-01T06:31:49;3.70;;;1.83;;
31537;SDS011;18147;51.952;6.146;2023-01-01T06:34:15;6.22;;;1.80;;
31537;SDS011;18147;51.952;6.146;2023-01-01T06:36:40;6.82;;;2.53;;
31537;SDS011;18147;51.952;6.146;2023-01-01T06:39:06;7.78;;;1.98;;
31537;SDS011;18147;51.952;6.146;2023-01-01T06:41:31;14.27;;;3.28;;
31537;SDS011;18147;51.952;6.146;2023-01-01T06:43:57;11.10;;;3.35;;
31537;SDS011;18147;51.952;6.146;2023-01-01T06:48:53;5.20;;;2.72;;
31537;SDS011;18147;51.952;6.146;2023-01-01T06:51:24;6.40;;;2.23;;
31537;SDS011;18147;51.952;6.146;2023-01-01T06:53:51;10.25;;;3.50;;
31537;SDS011;18147;51.952;6.146;2023-01-01T06:56:17;8.95;;;2.92;;
31537;SDS011;18147;51.952;6.146;2023-01-01T06:58:44;10.90;;;1.95;;
31537;SDS011;18147;51.952;6.146;2023-01-01T07:01:12;9.23;;;1.70;;
31537;SDS011;18147;51.952;6.146;2023-01-01T07:03:39;2.75;;;1.33;;
31537;SDS011;18147;51.952;6.146;2023-01-01T07:06:06;7.18;;;1.55;;
31537;SDS011;18147;51.952;6.146;2023-01-01T07:08:32;6.10;;;1.58;;
31537;SDS011;18147;51.952;6.146;2023-01-01T07:10:57;21.08;;;2.30;;
31537;SDS011;18147;51.952;6.146;2023-01-01T07:13:26;2.70;;;0.95;;
31537;SDS011;18147;51.952;6.146;2023-01-01T07:15:53;4.43;;;1.02;;
31537;SDS011;18147;51.952;6.146;2023-01-01T07:18:19;4.57;;;2.00;;
31537;SDS011;18147;51.952;6.146;2023-01-01T07:20:58;3.55;;;1.17;;
31537;SDS011;18147;51.952;6.146;2023-01-01T07:23:26;6.40;;;1.90;;
31537;SDS011;18147;51.952;6.146;2023-01-01T07:25:53;6.65;;;2.45;;
31537;SDS011;18147;51.952;6.146;2023-01-01T07:28:20;2.88;;;1.10;;
31537;SDS011;18147;51.952;6.146;2023-01-01T07:30:46;2.83;;;1.50;;
31537;SDS011;18147;51.952;6.146;2023-01-01T07:33:13;5.93;;;2.00;;
31537;SDS011;18147;51.952;6.146;2023-01-01T07:35:40;5.00;;;1.23;;
31537;SDS011;18147;51.952;6.146;2023-01-01T07:38:08;6.28;;;1.35;;
31537;SDS011;18147;51.952;6.146;2023-01-01T07:40:34;7.43;;;1.10;;
31537;SDS011;18147;51.952;6.146;2023-01-01T07:42:59;3.35;;;1.08;;
31537;SDS011;18147;51.952;6.146;2023-01-01T07:45:25;6.03;;;2.03;;
31537;SDS011;18147;51.952;6.146;2023-01-01T07:47:54;5.38;;;1.00;;
31537;SDS011;18147;51.952;6.146;2023-01-01T07:50:22;6.25;;;1.88;;
31537;SDS011;18147;51.952;6.146;2023-01-01T07:52:48;6.07;;;1.77;;
31537;SDS011;18147;51.952;6.146;2023-01-01T07:55:14;5.10;;;1.52;;
31537;SDS011;18147;51.952;6.146;2023-01-01T07:57:42;6.00;;;1.13;;
31537;SDS011;18147;51.952;6.146;2023-01-01T08:00:08;4.72;;;1.33;;
31537;SDS011;18147;51.952;6.146;2023-01-01T08:02:38;6.97;;;1.63;;
31537;SDS011;18147;51.952;6.146;2023-01-01T08:05:05;7.75;;;1.70;;
31537;SDS011;18147;51.952;6.146;2023-01-01T08:07:32;5.03;;;1.88;;
31537;SDS011;18147;51.952;6.146;2023-01-01T08:09:57;6.28;;;1.00;;
31537;SDS011;18147;51.952;6.146;2023-01-01T08:12:23;4.10;;;1.27;;
31537;SDS011;18147;51.952;6.146;2023-01-01T08:14:49;4.28;;;1.35;;
31537;SDS011;18147;51.952;6.146;2023-01-01T08:17:15;5.68;;;1.50;;
31537;SDS011;18147;51.952;6.146;2023-01-01T08:19:40;11.10;;;1.50;;
31537;SDS011;18147;51.952;6.146;2023-01-01T08:22:06;11.35;;;2.33;;
31537;SDS011;18147;51.952;6.146;2023-01-01T08:24:31;9.40;;;1.95;;
31537;SDS011;18147;51.952;6.146;2023-01-01T08:26:57;4.13;;;1.25;;
31537;SDS011;18147;51.952;6.146;2023-01-01T08:29:22;4.50;;;1.30;;
31537;SDS011;18147;51.952;6.146;2023-01-01T08:31:48;11.90;;;2.28;;
31537;SDS011;18147;51.952;6.146;2023-01-01T08:34:13;10.80;;;1.85;;
31537;SDS011;18147;51.952;6.146;2023-01-01T08:36:38;5.78;;;1.48;;
31537;SDS011;18147;51.952;6.146;2023-01-01T08:39:07;3.90;;;1.80;;
31537;SDS011;18147;51.952;6.146;2023-01-01T08:41:34;9.00;;;1.77;;
31537;SDS011;18147;51.952;6.146;2023-01-01T08:43:59;10.68;;;2.00;;
31537;SDS011;18147;51.952;6.146;2023-01-01T08:46:25;4.75;;;1.60;;
31537;SDS011;18147;51.952;6.146;2023-01-01T08:48:51;6.93;;;1.80;;
31537;SDS011;18147;51.952;6.146;2023-01-01T08:51:16;8.63;;;2.13;;
31537;SDS011;18147;51.952;6.146;2023-01-01T08:53:42;6.70;;;1.90;;
31537;SDS011;18147;51.952;6.146;2023-01-01T08:56:08;6.50;;;2.15;;
31537;SDS011;18147;51.952;6.146;2023-01-01T08:58:36;7.32;;;2.33;;
31537;SDS011;18147;51.952;6.146;2023-01-01T09:01:03;6.40;;;2.10;;
31537;SDS011;18147;51.952;6.146;2023-01-01T09:03:30;6.50;;;2.63;;
31537;SDS011;18147;51.952;6.146;2023-01-01T09:05:55;6.88;;;2.45;;
31537;SDS011;18147;51.952;6.146;2023-01-01T09:08:21;6.32;;;2.00;;
31537;SDS011;18147;51.952;6.146;2023-01-01T09:10:47;13.60;;;3.42;;
31537;SDS011;18147;51.952;6.146;2023-01-01T09:13:13;10.57;;;2.47;;
31537;SDS011;18147;51.952;6.146;2023-01-01T09:15:41;9.60;;;2.97;;
31537;SDS011;18147;51.952;6.146;2023-01-01T09:18:07;8.45;;;3.22;;
31537;SDS011;18147;51.952;6.146;2023-01-01T09:20:33;10.63;;;2.50;;
31537;SDS011;18147;51.952;6.146;2023-01-01T09:22:59;6.40;;;2.58;;
31537;SDS011;18147;51.952;6.146;2023-01-01T09:25:25;11.77;;;3.55;;
31537;SDS011;18147;51.952;6.146;2023-01-01T09:27:58;11.00;;;2.15;;
31537;SDS011;18147;51.952;6.146;2023-01-01T09:30:25;4.53;;;1.75;;
31537;SDS011;18147;51.952;6.146;2023-01-01T09:32:51;12.95;;;2.65;;
31537;SDS011;18147;51.952;6.146;2023-01-01T09:35:16;6.60;;;1.65;;
31537;SDS011;18147;51.952;6.146;2023-01-01T09:37:42;13.27;;;2.30;;
31537;SDS011;18147;51.952;6.146;2023-01-01T09:40:08;7.88;;;1.63;;
31537;SDS011;18147;51.952;6.146;2023-01-01T09:43:03;12.77;;;2.00;;
31537;SDS011;18147;51.952;6.146;2023-01-01T09:45:45;9.20;;;2.15;;
31537;SDS011;18147;51.952;6.146;2023-01-01T09:48:15;10.90;;;2.08;;
31537;SDS011;18147;51.952;6.146;2023-01-01T09:50:42;5.90;;;1.85;;
31537;SDS011;18147;51.952;6.146;2023-01-01T09:56:10;8.35;;;2.55;;
31537;SDS011;18147;51.952;6.146;2023-01-01T09:58:41;11.40;;;2.20;;
31537;SDS011;18147;51.952;6.146;2023-01-01T10:06:43;8.70;;;3.08;;
31537;SDS011;18147;51.952;6.146;2023-01-01T10:09:25;7.85;;;2.30;;
31537;SDS011;18147;51.952;6.146;2023-01-01T10:14:34;6.57;;;1.83;;
31537;SDS011;18147;51.952;6.146;2023-01-01T10:17:17;10.32;;;2.38;;
31537;SDS011;18147;51.952;6.146;2023-01-01T10:19:57;13.00;;;3.47;;
31537;SDS011;18147;51.952;6.146;2023-01-01T10:22:32;10.57;;;2.78;;
31537;SDS011;18147;51.952;6.146;2023-01-01T10:25:12;12.07;;;3.50;;
31537;SDS011;18147;51.952;6.146;2023-01-01T10:27:52;7.53;;;2.75;;
31537;SDS011;18147;51.952;6.146;2023-01-01T10:30:23;9.38;;;2.90;;
31537;SDS011;18147;51.952;6.146;2023-01-01T10:32:50;13.60;;;3.30;;
31537;SDS011;18147;51.952;6.146;2023-01-01T10:35:18;15.13;;;3.28;;
31537;SDS011;18147;51.952;6.146;2023-01-01T10:37:55;6.50;;;1.90;;
31537;SDS011;18147;51.952;6.146;2023-01-01T10:40:21;12.82;;;2.25;;
31537;SDS011;18147;51.952;6.146;2023-01-01T10:42:51;8.25;;;1.80;;
31537;SDS011;18147;51.952;6.146;2023-01-01T10:45:20;10.57;;;2.30;;
31537;SDS011;18147;51.952;6.146;2023-01-01T10:53:20;4.07;;;1.83;;
31537;SDS011;18147;51.952;6.146;2023-01-01T10:55:49;12.45;;;2.80;;
31537;SDS011;18147;51.952;6.146;2023-01-01T10:58:25;16.98;;;2.35;;
31537;SDS011;18147;51.952;6.146;2023-01-01T11:01:39;7.95;;;1.90;;
31537;SDS011;18147;51.952;6.146;2023-01-01T11:06:39;7.35;;;2.40;;
31537;SDS011;18147;51.952;6.146;2023-01-01T11:12:04;8.00;;;2.08;;
31537;SDS011;18147;51.952;6.146;2023-01-01T11:14:36;7.90;;;2.20;;
31537;SDS011;18147;51.952;6.146;2023-01-01T11:17:02;8.73;;;2.08;;
31537;SDS011;18147;51.952;6.146;2023-01-01T11:19:32;9.35;;;2.65;;
31537;SDS011;18147;51.952;6.146;2023-01-01T11:22:00;8.70;;;1.92;;
31537;SDS011;18147;51.952;6.146;2023-01-01T11:24:31;17.13;;;3.25;;
31537;SDS011;18147;51.952;6.146;2023-01-01T11:27:17;6.90;;;1.90;;
31537;SDS011;18147;51.952;6.146;2023-01-01T11:29:43;14.73;;;2.65;;
31537;SDS011;18147;51.952;6.146;2023-01-01T11:32:08;8.18;;;2.80;;
31537;SDS011;18147;51.952;6.146;2023-01-01T11:34:45;10.35;;;3.05;;
31537;SDS011;18147;51.952;6.146;2023-01-01T11:37:28;7.70;;;3.13;;
31537;SDS011;18147;51.952;6.146;2023-01-01T11:39:58;9.45;;;3.10;;
31537;SDS011;18147;51.952;6.146;2023-01-01T11:42:29;14.82;;;3.95;;
31537;SDS011;18147;51.952;6.146;2023-01-01T11:44:59;10.20;;;3.85;;
31537;SDS011;18147;51.952;6.146;2023-01-01T11:47:38;12.40;;;3.90;;
31537;SDS011;18147;51.952;6.146;2023-01-01T11:50:12;12.18;;;3.83;;
31537;SDS011;18147;51.952;6.146;2023-01-01T11:52:52;12.38;;;3.85;;
31537;SDS011;18147;51.952;6.146;2023-01-01T12:03:48;16.75;;;6.57;;
31537;SDS011;18147;51.952;6.146;2023-01-01T12:09:07;17.08;;;6.10;;
31537;SDS011;18147;51.952;6.146;2023-01-01T12:12:01;19.83;;;7.45;;
31537;SDS011;18147;51.952;6.146;2023-01-01T12:17:15;18.58;;;6.97;;
31537;SDS011;18147;51.952;6.146;2023-01-01T12:19:47;17.05;;;6.78;;
31537;SDS011;18147;51.952;6.146;2023-01-01T12:22:19;19.63;;;7.75;;
31537;SDS011;18147;51.952;6.146;2023-01-01T12:24:45;14.30;;;7.63;;
31537;SDS011;18147;51.952;6.146;2023-01-01T12:33:07;15.90;;;6.32;;
31537;SDS011;18147;51.952;6.146;2023-01-01T12:38:28;20.10;;;5.63;;
31537;SDS011;18147;51.952;6.146;2023-01-01T12:41:07;25.65;;;6.03;;
31537;SDS011;18147;51.952;6.146;2023-01-01T12:49:09;15.48;;;4.35;;
31537;SDS011;18147;51.952;6.146;2023-01-01T12:52:41;20.42;;;6.05;;
31537;SDS011;18147;51.952;6.146;2023-01-01T13:00:00;15.35;;;4.43;;
31537;SDS011;18147;51.952;6.146;2023-01-01T13:02:35;13.45;;;3.95;;
31537;SDS011;18147;51.952;6.146;2023-01-01T13:05:12;20.15;;;4.43;;
31537;SDS011;18147;51.952;6.146;2023-01-01T13:07:43;18.13;;;4.10;;
31537;SDS011;18147;51.952;6.146;2023-01-01T13:13:03;14.27;;;4.75;;
31537;SDS011;18147;51.952;6.146;2023-01-01T13:18:04;22.23;;;3.67;;
31537;SDS011;18147;51.952;6.146;2023-01-01T13:31:43;7.30;;;2.83;;
31537;SDS011;18147;51.952;6.146;2023-01-01T13:34:58;21.70;;;5.65;;
31537;SDS011;18147;51.952;6.146;2023-01-01T13:37:55;12.80;;;3.38;;
31537;SDS011;18147;51.952;6.146;2023-01-01T13:40:53;11.27;;;2.67;;
31537;SDS011;18147;51.952;6.146;2023-01-01T13:48:19;19.02;;;3.60;;
31537;SDS011;18147;51.952;6.146;2023-01-01T13:53:59;13.18;;;3.35;;
31537;SDS011;18147;51.952;6.146;2023-01-01T13:56:46;12.13;;;2.60;;
31537;SDS011;18147;51.952;6.146;2023-01-01T13:59:22;13.15;;;2.83;;
31537;SDS011;18147;51.952;6.146;2023-01-01T14:10:18;19.77;;;4.90;;
31537;SDS011;18147;51.952;6.146;2023-01-01T14:12:50;18.70;;;3.67;;
31537;SDS011;18147;51.952;6.146;2023-01-01T14:15:25;13.15;;;4.00;;
31537;SDS011;18147;51.952;6.146;2023-01-01T14:17:59;22.45;;;4.13;;
31537;SDS011;18147;51.952;6.146;2023-01-01T14:20:29;16.88;;;4.30;;
31537;SDS011;18147;51.952;6.146;2023-01-01T14:23:03;9.35;;;3.90;;
31537;SDS011;18147;51.952;6.146;2023-01-01T14:25:31;15.87;;;4.27;;
31537;SDS011;18147;51.952;6.146;2023-01-01T14:27:57;8.90;;;3.72;;
31537;SDS011;18147;51.952;6.146;2023-01-01T14:30:23;15.45;;;3.92;;
31537;SDS011;18147;51.952;6.146;2023-01-01T14:32:56;16.85;;;3.47;;
31537;SDS011;18147;51.952;6.146;2023-01-01T14:35:26;14.32;;;3.33;;
31537;SDS011;18147;51.952;6.146;2023-01-01T14:37:52;14.13;;;3.75;;
31537;SDS011;18147;51.952;6.146;2023-01-01T14:40:19;15.73;;;2.95;;
31537;SDS011;18147;51.952;6.146;2023-01-01T14:42:55;17.50;;;3.08;;
31537;SDS011;18147;51.952;6.146;2023-01-01T14:45:24;21.27;;;4.75;;
31537;SDS011;18147;51.952;6.146;2023-01-01T14:47:50;18.80;;;4.20;;
31537;SDS011;18147;51.952;6.146;2023-01-01T14:50:23;17.90;;;3.88;;
31537;SDS011;18147;51.952;6.146;2023-01-01T14:52:53;21.67;;;4.80;;
31537;SDS011;18147;51.952;6.146;2023-01-01T14:55:27;23.15;;;5.22;;
31537;SDS011;18147;51.952;6.146;2023-01-01T14:57:57;20.55;;;5.68;;
31537;SDS011;18147;51.952;6.146;2023-01-01T15:00:28;14.27;;;4.45;;
31537;SDS011;18147;51.952;6.146;2023-01-01T15:03:03;15.70;;;4.18;;
31537;SDS011;18147;51.952;6.146;2023-01-01T15:05:31;9.23;;;3.53;;
31537;SDS011;18147;51.952;6.146;2023-01-01T15:08:00;17.83;;;3.90;;
31537;SDS011;18147;51.952;6.146;2023-01-01T15:10:29;15.63;;;4.07;;
31537;SDS011;18147;51.952;6.146;2023-01-01T15:12:57;15.02;;;4.57;;
31537;SDS011;18147;51.952;6.146;2023-01-01T15:20:58;21.88;;;6.05;;
31537;SDS011;18147;51.952;6.146;2023-01-01T15:23:24;19.73;;;4.63;;
31537;SDS011;18147;51.952;6.146;2023-01-01T15:25:49;15.55;;;4.40;;
31537;SDS011;18147;51.952;6.146;2023-01-01T15:28:18;20.23;;;5.15;;
31537;SDS011;18147;51.952;6.146;2023-01-01T15:30:50;16.67;;;4.40;;
31537;SDS011;18147;51.952;6.146;2023-01-01T15:33:17;16.83;;;5.65;;
31537;SDS011;18147;51.952;6.146;2023-01-01T15:35:47;13.40;;;3.55;;
31537;SDS011;18147;51.952;6.146;2023-01-01T15:38:15;15.95;;;3.95;;
31537;SDS011;18147;51.952;6.146;2023-01-01T15:40:48;14.95;;;4.20;;
31537;SDS011;18147;51.952;6.146;2023-01-01T15:43:17;15.73;;;3.88;;
31537;SDS011;18147;51.952;6.146;2023-01-01T15:45:50;20.20;;;4.95;;
31537;SDS011;18147;51.952;6.146;2023-01-01T15:48:22;11.73;;;3.90;;
31537;SDS011;18147;51.952;6.146;2023-01-01T15:53:24;13.00;;;4.03;;
31537;SDS011;18147;51.952;6.146;2023-01-01T15:55:55;14.50;;;3.78;;
31537;SDS011;18147;51.952;6.146;2023-01-01T15:58:31;12.98;;;5.05;;
31537;SDS011;18147;51.952;6.146;2023-01-01T16:01:06;10.60;;;3.97;;
31537;SDS011;18147;51.952;6.146;2023-01-01T16:03:35;11.35;;;3.90;;
31537;SDS011;18147;51.952;6.146;2023-01-01T16:06:03;12.93;;;4.50;;
31537;SDS011;18147;51.952;6.146;2023-01-01T16:08:29;11.15;;;4.63;;
31537;SDS011;18147;51.952;6.146;2023-01-01T16:10:55;15.80;;;4.57;;
31537;SDS011;18147;51.952;6.146;2023-01-01T16:13:21;13.60;;;5.18;;
31537;SDS011;18147;51.952;6.146;2023-01-01T16:15:54;22.63;;;5.40;;
31537;SDS011;18147;51.952;6.146;2023-01-01T16:18:31;26.27;;;4.65;;
31537;SDS011;18147;51.952;6.146;2023-01-01T16:20:59;16.15;;;4.35;;
31537;SDS011;18147;51.952;6.146;2023-01-01T16:23:26;22.00;;;4.50;;
31537;SDS011;18147;51.952;6.146;2023-01-01T16:25:52;15.32;;;4.20;;
31537;SDS011;18147;51.952;6.146;2023-01-01T16:28:17;34.22;;;16.70;;
31537;SDS011;18147;51.952;6.146;2023-01-01T16:30:43;18.17;;;7.03;;
31537;SDS011;18147;51.952;6.146;2023-01-01T16:33:11;13.23;;;5.30;;
31537;SDS011;18147;51.952;6.146;2023-01-01T16:35:39;13.13;;;4.32;;
31537;SDS011;18147;51.952;6.146;2023-01-01T16:38:04;13.60;;;3.85;;
31537;SDS011;18147;51.952;6.146;2023-01-01T16:40:30;12.40;;;3.55;;
31537;SDS011;18147;51.952;6.146;2023-01-01T16:42:56;17.27;;;4.63;;
31537;SDS011;18147;51.952;6.146;2023-01-01T16:45:21;11.90;;;3.42;;
31537;SDS011;18147;51.952;6.146;2023-01-01T16:47:47;14.05;;;4.32;;
31537;SDS011;18147;51.952;6.146;2023-01-01T16:50:12;13.77;;;4.43;;
31537;SDS011;18147;51.952;6.146;2023-01-01T16:52:37;17.42;;;4.78;;
31537;SDS011;18147;51.952;6.146;2023-01-01T16:55:03;16.30;;;3.97;;
31537;SDS011;18147;51.952;6.146;2023-01-01T16:57:29;15.50;;;4.03;;